Time;durP1;ratioP1;P1;durP2;ratioP2;P2;SDS_P1;SDS_P2;PMS_P1;PMS_P2;Temp;Humidity;BMP_temperature;BMP_pressure;BME280_temperature;BME280_humidity;BME280_pressure;Samples;Min_cycle;Max_cycle;Signal;HPM_P1;HPM_P2
2022/07/31 00:00:06;;;;;;;0.70;0.70;;;19.40;99.90;;;;;;4445709;32;20080;-74
2022/07/31 00:02:31;;;;;;;0.98;0.85;;;19.40;99.90;;;;;;4445507;32;20061;-74
2022/07/31 00:04:57;;;;;;;0.52;0.47;;;19.40;99.90;;;;;;4453671;32;20068;-74
2022/07/31 00:07:22;;;;;;;2.15;1.15;;;19.30;99.90;;;;;;4462353;32;20085;-75
2022/07/31 00:09:47;;;;;;;0.40;0.40;;;19.10;99.90;;;;;;4460798;32;20085;-75
2022/07/31 00:12:13;;;;;;;0.50;0.50;;;19.00;99.90;;;;;;4460931;32;20126;-74
2022/07/31 00:14:39;;;;;;;2.92;0.90;;;19.00;99.90;;;;;;4460863;32;20089;-75
2022/07/31 00:17:04;;;;;;;0.40;0.40;;;19.00;99.90;;;;;;4460587;32;20064;-75
2022/07/31 00:19:30;;;;;;;0.30;0.30;;;19.10;99.90;;;;;;4460296;32;20492;-75
2022/07/31 00:21:57;;;;;;;0.40;0.40;;;19.10;99.90;;;;;;4446902;32;20120;-75
2022/07/31 00:24:23;;;;;;;0.77;0.60;;;19.10;99.90;;;;;;4442600;32;20081;-74
2022/07/31 00:26:48;;;;;;;0.95;0.60;;;19.00;99.90;;;;;;4461666;32;20056;-75
2022/07/31 00:29:14;;;;;;;0.37;0.37;;;18.80;99.90;;;;;;4460629;32;20469;-74
2022/07/31 00:31:39;;;;;;;0.50;0.50;;;18.80;99.90;;;;;;4461944;32;20061;-75
2022/07/31 00:34:05;;;;;;;0.40;0.40;;;18.80;99.90;;;;;;4459382;32;20163;-75
2022/07/31 00:36:30;;;;;;;0.52;0.50;;;18.70;99.90;;;;;;4445299;32;20078;-75
2022/07/31 00:38:56;;;;;;;0.30;0.30;;;18.70;99.90;;;;;;4445615;32;20060;-75
2022/07/31 00:41:21;;;;;;;0.60;0.60;;;18.60;99.90;;;;;;4445193;32;20076;-74
2022/07/31 00:43:47;;;;;;;1.15;0.60;;;18.60;99.90;;;;;;4445110;32;20077;-75
2022/07/31 00:46:12;;;;;;;0.35;0.35;;;18.70;99.90;;;;;;4455709;32;20081;-75
2022/07/31 00:48:37;;;;;;;0.43;0.43;;;18.80;99.90;;;;;;4460711;32;20064;-75
2022/07/31 00:51:04;;;;;;;0.52;0.52;;;18.60;99.90;;;;;;4450101;32;20541;-75
2022/07/31 00:53:29;;;;;;;1.65;0.93;;;18.50;99.90;;;;;;4425097;32;20569;-75
2022/07/31 00:55:56;;;;;;;0.37;0.37;;;18.60;99.90;;;;;;4439142;32;20065;-74
2022/07/31 00:58:21;;;;;;;0.85;0.40;;;18.60;99.90;;;;;;4445374;32;20187;-75
2022/07/31 01:00:47;;;;;;;0.30;0.30;;;18.50;99.90;;;;;;4444626;32;20066;-75
2022/07/31 01:03:13;;;;;;;0.40;0.40;;;18.50;99.90;;;;;;4444420;32;20069;-74
2022/07/31 01:05:38;;;;;;;2.92;1.40;;;18.50;99.90;;;;;;4444509;32;20065;-74
2022/07/31 01:08:04;;;;;;;0.40;0.40;;;18.50;99.90;;;;;;4445183;32;20068;-75
2022/07/31 01:10:48;;;;;;;0.50;0.50;;;18.40;99.90;;;;;;4444711;32;20061;-75
2022/07/31 01:13:24;;;;;;;0.47;0.47;;;18.20;99.90;;;;;;4444990;32;20101;-75
2022/07/31 01:15:51;;;;;;;25.85;2.72;;;18.20;99.90;;;;;;4445094;32;20081;-75
2022/07/31 01:18:17;;;;;;;0.75;0.57;;;18.20;99.90;;;;;;4444564;32;20069;-75
2022/07/31 01:20:44;;;;;;;0.30;0.30;;;18.20;99.90;;;;;;4441698;32;20565;-75
2022/07/31 01:23:40;;;;;;;0.40;0.40;;;18.30;99.90;;;;;;4426971;32;20522;-75
2022/07/31 01:26:32;;;;;;;0.60;0.60;;;18.30;99.90;;;;;;4441484;32;20089;-75
2022/07/31 01:29:05;;;;;;;0.40;0.40;;;18.30;99.90;;;;;;4445108;32;20076;-75
2022/07/31 01:31:42;;;;;;;1.12;0.55;;;18.20;99.90;;;;;;4445748;32;20103;-75
2022/07/31 01:34:32;;;;;;;0.60;0.60;;;18.20;99.90;;;;;;4444103;32;20126;-75
2022/07/31 01:37:16;;;;;;;0.55;0.55;;;18.10;99.90;;;;;;4443499;32;20078;-75
2022/07/31 01:39:47;;;;;;;0.50;0.50;;;18.10;99.90;;;;;;4444655;32;20073;-75
2022/07/31 01:42:15;;;;;;;;;;;18.10;99.90;;;;;;4444774;32;20080;-75
2022/07/31 01:44:42;;;;;;;0.50;0.50;;;18.00;99.90;;;;;;4444566;32;19948;-75
2022/07/31 01:47:11;;;;;;;1.20;0.80;;;17.90;99.90;;;;;;4449083;32;20086;-75
2022/07/31 01:49:38;;;;;;;1.00;0.90;;;17.90;99.90;;;;;;4445425;32;20060;-75
2022/07/31 01:52:05;;;;;;;0.57;0.57;;;17.90;99.90;;;;;;4430864;32;20475;-75
2022/07/31 01:54:33;;;;;;;0.73;0.73;;;18.00;99.90;;;;;;4427651;32;20076;-75
2022/07/31 01:57:01;;;;;;;0.40;0.40;;;18.00;99.90;;;;;;4444973;32;20139;-74
2022/07/31 01:59:28;;;;;;;0.40;0.40;;;18.00;99.90;;;;;;4445489;32;20499;-75
2022/07/31 02:01:54;;;;;;;0.57;0.57;;;17.80;99.90;;;;;;4445741;32;20053;-75
2022/07/31 02:04:21;;;;;;;0.75;0.70;;;17.80;99.90;;;;;;4447889;32;20108;-75
2022/07/31 02:06:48;;;;;;;0.73;0.60;;;17.80;99.90;;;;;;4447868;32;20069;-75
2022/07/31 02:09:16;;;;;;;0.68;0.60;;;17.80;99.90;;;;;;4447578;32;20109;-75
2022/07/31 02:11:42;;;;;;;0.73;0.40;;;17.70;99.90;;;;;;4448563;32;20505;-75
2022/07/31 02:14:08;;;;;;;1.35;0.60;;;17.60;99.90;;;;;;4448563;32;20065;-75
2022/07/31 02:16:36;;;;;;;1.00;0.50;;;17.70;99.90;;;;;;4447676;32;20077;-75
2022/07/31 02:19:04;;;;;;;1.25;0.95;;;17.70;99.90;;;;;;4448078;32;20083;-75
2022/07/31 02:21:29;;;;;;;0.70;0.70;;;17.80;99.90;;;;;;4438577;32;20116;-75
2022/07/31 02:23:56;;;;;;;0.30;0.30;;;17.80;99.90;;;;;;4428747;32;20134;-75
2022/07/31 02:26:22;;;;;;;0.32;0.32;;;17.80;99.90;;;;;;4446402;32;20069;-75
2022/07/31 02:28:48;;;;;;;0.50;0.50;;;17.60;99.90;;;;;;4447659;32;20077;-75
2022/07/31 02:31:16;;;;;;;0.30;0.30;;;17.60;99.90;;;;;;4447480;32;20061;-75
2022/07/31 02:33:44;;;;;;;0.62;0.60;;;17.70;99.90;;;;;;4447393;32;20069;-75
2022/07/31 02:36:11;;;;;;;0.70;0.68;;;17.70;99.90;;;;;;4447692;32;20065;-74
2022/07/31 02:38:39;;;;;;;1.33;0.65;;;17.60;99.90;;;;;;4447629;32;20069;-74
2022/07/31 02:41:06;;;;;;;8.70;0.68;;;17.60;99.90;;;;;;4449343;32;20073;-74
2022/07/31 02:43:33;;;;;;;0.50;0.50;;;17.60;99.90;;;;;;4448085;32;20523;-74
2022/07/31 02:46:00;;;;;;;1.05;0.77;;;17.60;99.90;;;;;;4456648;32;20077;-74
2022/07/31 02:48:26;;;;;;;1.27;0.70;;;17.50;99.90;;;;;;4465162;32;20073;-74
2022/07/31 02:50:52;;;;;;;2.08;0.70;;;17.60;99.90;;;;;;4459211;32;21172;-74
2022/07/31 02:53:18;;;;;;;0.80;0.52;;;17.60;99.90;;;;;;4444878;32;20499;-74
2022/07/31 02:55:45;;;;;;;1.52;1.15;;;17.50;99.90;;;;;;4457312;32;20089;-74
2022/07/31 02:58:11;;;;;;;3.45;0.65;;;17.40;99.90;;;;;;4464996;32;20064;-75
2022/07/31 03:00:36;;;;;;;0.35;0.35;;;17.40;99.90;;;;;;4464236;32;20367;-75
2022/07/31 03:03:02;;;;;;;0.40;0.40;;;17.50;99.90;;;;;;4462444;32;20088;-75
2022/07/31 03:05:27;;;;;;;0.40;0.40;;;17.60;99.90;;;;;;4462695;32;20061;-75
2022/07/31 03:07:53;;;;;;;0.50;0.50;;;17.70;99.90;;;;;;4462509;32;20081;-75
2022/07/31 03:10:18;;;;;;;1.85;0.70;;;17.60;99.90;;;;;;4463621;32;20060;-75
2022/07/31 03:12:48;;;;;;;0.70;0.70;;;17.50;99.90;;;;;;4462407;32;20496;-75
2022/07/31 03:15:16;;;;;;;0.47;0.47;;;17.40;99.90;;;;;;4462052;32;20065;-75
2022/07/31 03:17:44;;;;;;;4.15;1.60;;;17.30;99.90;;;;;;4462069;32;20129;-75
2022/07/31 03:20:11;;;;;;;0.55;0.55;;;17.40;99.90;;;;;;4463234;32;20711;-75
2022/07/31 03:22:38;;;;;;;0.73;0.50;;;17.40;99.90;;;;;;4443776;32;20344;-75
2022/07/31 03:25:04;;;;;;;0.40;0.40;;;17.40;99.90;;;;;;4451870;32;20206;-75
2022/07/31 03:27:30;;;;;;;0.85;0.85;;;17.40;99.90;;;;;;4464437;32;20512;-75
2022/07/31 03:29:55;;;;;;;0.62;0.62;;;17.30;99.90;;;;;;4462911;32;20052;-75
2022/07/31 03:32:21;;;;;;;0.30;0.30;;;17.30;99.90;;;;;;4463176;32;20543;-75
2022/07/31 03:34:46;;;;;;;0.50;0.50;;;17.30;99.90;;;;;;4462581;32;20076;-75
2022/07/31 03:37:13;;;;;;;1.02;0.93;;;17.20;99.90;;;;;;4462450;32;20119;-75
2022/07/31 03:39:38;;;;;;;0.60;0.60;;;17.00;99.90;;;;;;4462317;32;20418;-75
2022/07/31 03:42:05;;;;;;;1.25;0.60;;;17.00;99.90;;;;;;4462984;32;20166;-75
2022/07/31 03:44:32;;;;;;;0.55;0.55;;;17.10;99.90;;;;;;4462707;32;20076;-75
2022/07/31 03:46:58;;;;;;;4.37;1.02;;;17.10;99.90;;;;;;4451580;32;20069;-75
2022/07/31 03:49:25;;;;;;;0.50;0.50;;;17.00;99.90;;;;;;4448139;32;20081;-75
2022/07/31 03:51:50;;;;;;;0.57;0.57;;;17.10;99.90;;;;;;4436062;32;20096;-75
2022/07/31 03:54:16;;;;;;;0.88;0.68;;;17.10;99.90;;;;;;4431735;32;20220;-74
2022/07/31 03:56:45;;;;;;;0.62;0.50;;;16.90;99.90;;;;;;4446487;32;20477;-75
2022/07/31 03:59:12;;;;;;;0.80;0.50;;;17.10;99.90;;;;;;4447683;32;20069;-75
2022/07/31 04:01:38;;;;;;;0.50;0.50;;;17.10;99.90;;;;;;4448881;32;20076;-75
2022/07/31 04:04:03;;;;;;;1.65;0.82;;;17.10;99.90;;;;;;4447345;32;20064;-75
2022/07/31 04:06:29;;;;;;;1.20;0.75;;;17.00;99.90;;;;;;4452903;32;20084;-75
2022/07/31 04:08:54;;;;;;;0.50;0.50;;;17.00;99.90;;;;;;4463713;32;20103;-74
2022/07/31 04:11:20;;;;;;;1.08;0.88;;;17.00;99.90;;;;;;4463287;32;20081;-75
2022/07/31 04:13:45;;;;;;;0.32;0.32;;;17.00;99.90;;;;;;4462763;32;20485;-75
2022/07/31 04:16:11;;;;;;;0.40;0.40;;;17.10;99.90;;;;;;4463930;32;20414;-75
2022/07/31 04:18:36;;;;;;;0.73;0.70;;;17.10;99.90;;;;;;4462791;32;20065;-75
2022/07/31 04:21:01;;;;;;;0.60;0.60;;;17.10;99.90;;;;;;4459593;32;20089;-75
2022/07/31 04:23:27;;;;;;;1.02;0.70;;;17.00;99.90;;;;;;4445765;32;20098;-74
2022/07/31 04:25:52;;;;;;;0.50;0.50;;;17.00;99.90;;;;;;4459760;32;20080;-74
2022/07/31 04:28:18;;;;;;;0.40;0.40;;;16.90;99.90;;;;;;4463059;32;20065;-74
2022/07/31 04:30:43;;;;;;;0.37;0.37;;;17.10;99.90;;;;;;4464725;32;20426;-74
2022/07/31 04:33:09;;;;;;;0.45;0.45;;;17.10;99.90;;;;;;4463025;32;20124;-74
2022/07/31 04:35:34;;;;;;;1.77;0.70;;;17.20;99.90;;;;;;4462945;32;20077;-74
2022/07/31 04:38:00;;;;;;;10.55;0.82;;;17.30;99.90;;;;;;4457956;32;20395;-74
2022/07/31 04:40:26;;;;;;;0.40;0.40;;;17.20;99.90;;;;;;4448283;32;20128;-74
2022/07/31 04:42:52;;;;;;;0.50;0.50;;;17.20;99.90;;;;;;4448450;32;20081;-75
2022/07/31 04:45:18;;;;;;;0.40;0.40;;;17.20;99.90;;;;;;4447911;32;20061;-74
2022/07/31 04:47:43;;;;;;;0.40;0.40;;;17.30;99.90;;;;;;4447824;32;20069;-74
2022/07/31 04:50:09;;;;;;;0.60;0.55;;;17.30;99.90;;;;;;4445092;32;87191;-74
2022/07/31 04:52:34;;;;;;;2.05;1.00;;;17.30;99.90;;;;;;4431572;32;20355;-74
2022/07/31 04:55:00;;;;;;;1.20;0.93;;;17.30;99.90;;;;;;4434807;32;20066;-74
2022/07/31 04:57:25;;;;;;;0.50;0.50;;;17.40;99.90;;;;;;4448279;32;20135;-74
2022/07/31 04:59:51;;;;;;;0.52;0.52;;;17.40;99.90;;;;;;4449103;32;20082;-74
2022/07/31 05:02:16;;;;;;;0.40;0.40;;;17.40;99.90;;;;;;4447153;32;20061;-74
2022/07/31 05:04:42;;;;;;;0.50;0.50;;;17.50;99.90;;;;;;4446484;32;20438;-74
2022/07/31 05:07:07;;;;;;;1.17;1.02;;;17.60;99.90;;;;;;4456300;32;20124;-74
2022/07/31 05:09:34;;;;;;;0.68;0.65;;;17.70;99.90;;;;;;4462461;32;20541;-74
2022/07/31 05:12:00;;;;;;;0.82;0.80;;;17.70;99.90;;;;;;4462228;32;20080;-74
2022/07/31 05:14:26;;;;;;;0.68;0.62;;;17.70;99.90;;;;;;4463079;32;20493;-74
2022/07/31 05:16:52;;;;;;;0.40;0.40;;;17.70;99.90;;;;;;4463465;32;20151;-74
2022/07/31 05:19:17;;;;;;;0.40;0.40;;;17.70;99.90;;;;;;4462745;32;20061;-74
2022/07/31 05:21:44;;;;;;;0.32;0.32;;;17.90;99.90;;;;;;4451657;32;20077;-74
2022/07/31 05:24:10;;;;;;;0.60;0.60;;;18.00;99.90;;;;;;4443882;32;20145;-74
2022/07/31 05:26:35;;;;;;;0.32;0.32;;;18.20;99.90;;;;;;4460508;32;20061;-74
2022/07/31 05:29:02;;;;;;;0.70;0.68;;;18.20;99.90;;;;;;4462057;32;20152;-74
2022/07/31 05:31:28;;;;;;;0.40;0.40;;;18.30;99.90;;;;;;4461547;32;20096;-74
2022/07/31 05:33:53;;;;;;;1.35;0.75;;;18.30;99.90;;;;;;4462285;32;20126;-74
2022/07/31 05:36:19;;;;;;;4.78;1.42;;;18.40;99.90;;;;;;4460820;32;20159;-74
2022/07/31 05:38:46;;;;;;;0.70;0.50;;;18.40;99.90;;;;;;4452514;32;20093;-75
2022/07/31 05:41:12;;;;;;;0.37;0.37;;;18.30;99.90;;;;;;4448656;32;20069;-74
2022/07/31 05:43:38;;;;;;;0.40;0.40;;;18.40;99.90;;;;;;4448802;32;20128;-74
2022/07/31 05:46:05;;;;;;;1.05;0.95;;;18.50;99.90;;;;;;4457421;32;20069;-74
2022/07/31 05:48:31;;;;;;;0.85;0.60;;;18.60;99.90;;;;;;4464175;32;20084;-74
2022/07/31 05:50:57;;;;;;;0.65;0.60;;;18.70;99.90;;;;;;4454652;32;20073;-74
2022/07/31 05:53:23;;;;;;;0.50;0.50;;;18.70;99.90;;;;;;4429172;32;20597;-74
2022/07/31 05:55:49;;;;;;;0.40;0.40;;;18.80;99.90;;;;;;4441556;32;20076;-74
2022/07/31 05:58:16;;;;;;;0.65;0.65;;;18.90;99.90;;;;;;4449608;32;20069;-74
2022/07/31 06:00:43;;;;;;;0.60;0.60;;;18.90;99.90;;;;;;4450686;32;20193;-74
2022/07/31 06:03:11;;;;;;;0.68;0.68;;;19.00;99.90;;;;;;4449054;32;20069;-74
2022/07/31 06:05:37;;;;;;;0.65;0.60;;;19.10;99.90;;;;;;4449331;32;20072;-75
2022/07/31 06:08:03;;;;;;;0.50;0.50;;;19.10;99.90;;;;;;4449732;32;20065;-74
2022/07/31 06:10:28;;;;;;;0.40;0.40;;;19.20;99.90;;;;;;4449263;32;20064;-74
2022/07/31 06:12:54;;;;;;;0.37;0.37;;;19.20;99.90;;;;;;4449900;32;20522;-74
2022/07/31 06:15:19;;;;;;;1.62;0.98;;;19.30;99.90;;;;;;4449002;32;20069;-73
2022/07/31 06:17:45;;;;;;;0.50;0.40;;;19.40;99.90;;;;;;4449158;32;20064;-74
2022/07/31 06:20:12;;;;;;;0.47;0.47;;;19.50;99.90;;;;;;4448901;32;20072;-74
2022/07/31 06:22:39;;;;;;;0.50;0.50;;;19.50;99.90;;;;;;4429522;32;20101;-74
2022/07/31 06:25:07;;;;;;;0.40;0.40;;;19.60;99.90;;;;;;4437309;32;20073;-73
2022/07/31 06:27:33;;;;;;;6.72;1.85;;;19.60;99.90;;;;;;4448601;32;20069;-73
2022/07/31 06:29:58;;;;;;;0.45;0.45;;;19.70;99.90;;;;;;4448857;32;20110;-73
2022/07/31 06:32:24;;;;;;;0.40;0.40;;;19.80;99.90;;;;;;4450003;32;20094;-73
2022/07/31 06:34:49;;;;;;;0.50;0.50;;;19.80;99.90;;;;;;4447813;32;20065;-73
2022/07/31 06:37:15;;;;;;;0.55;0.55;;;19.90;99.90;;;;;;4449170;32;20068;-74
2022/07/31 06:39:40;;;;;;;0.37;0.37;;;19.90;99.90;;;;;;4449599;32;20119;-74
2022/07/31 06:42:06;;;;;;;0.47;0.47;;;20.00;99.90;;;;;;4449075;32;20081;-74
2022/07/31 06:44:33;;;;;;;0.50;0.50;;;20.00;99.90;;;;;;4449082;32;20030;-74
2022/07/31 06:46:58;;;;;;;0.30;0.30;;;20.10;99.90;;;;;;4462466;32;20486;-74
2022/07/31 06:49:24;;;;;;;2.08;1.20;;;20.20;99.90;;;;;;4462060;32;20065;-74
2022/07/31 06:51:51;;;;;;;0.57;0.57;;;20.30;99.90;;;;;;4450721;32;20076;-74
2022/07/31 06:54:16;;;;;;;0.40;0.40;;;20.30;99.90;;;;;;4448357;32;20068;-74
2022/07/31 06:56:42;;;;;;;0.85;0.60;;;20.30;99.90;;;;;;4461647;32;20524;-74
2022/07/31 06:59:07;;;;;;;1.27;1.00;;;20.40;99.90;;;;;;4463092;32;20077;-73
2022/07/31 07:01:33;;;;;;;0.70;0.50;;;20.60;99.90;;;;;;4462884;32;20433;-73
2022/07/31 07:03:59;;;;;;;0.60;0.50;;;20.60;99.90;;;;;;4462381;32;20090;-73
2022/07/31 07:06:25;;;;;;;0.40;0.40;;;20.70;99.90;;;;;;4462922;32;20081;-73
2022/07/31 07:08:51;;;;;;;19.48;1.85;;;20.80;99.90;;;;;;4463471;32;20060;-73
2022/07/31 07:11:18;;;;;;;0.40;0.40;;;20.80;99.90;;;;;;4462662;32;20077;-73
2022/07/31 07:13:43;;;;;;;3.10;0.82;;;20.90;99.90;;;;;;4462806;32;20115;-73
2022/07/31 07:16:09;;;;;;;0.43;0.43;;;21.00;99.90;;;;;;4462829;32;20084;-74
2022/07/31 07:18:34;;;;;;;0.37;0.37;;;21.10;99.90;;;;;;4460957;32;20145;-74
2022/07/31 07:21:00;;;;;;;0.60;0.60;;;21.10;99.90;;;;;;4456801;32;20068;-73
2022/07/31 07:23:25;;;;;;;0.60;0.60;;;21.30;99.90;;;;;;4442523;32;20065;-74
2022/07/31 07:25:51;;;;;;;0.35;0.35;;;21.30;99.90;;;;;;4455942;32;20453;-75
2022/07/31 07:28:17;;;;;;;0.45;0.45;;;21.30;99.90;;;;;;4462192;32;20088;-75
2022/07/31 07:30:43;;;;;;;0.30;0.30;;;21.40;99.90;;;;;;4462746;32;20061;-73
2022/07/31 07:33:09;;;;;;;0.30;0.30;;;21.50;99.90;;;;;;4463240;32;20395;-74
2022/07/31 07:35:35;;;;;;;0.40;0.40;;;21.60;99.90;;;;;;4461717;32;20552;-73
2022/07/31 07:38:01;;;;;;;1.00;0.40;;;21.80;99.90;;;;;;4463118;32;20065;-74
2022/07/31 07:40:27;;;;;;;3.40;1.25;;;21.90;99.90;;;;;;4461112;32;20064;-73
2022/07/31 07:42:52;;;;;;;0.22;0.22;;;22.10;99.90;;;;;;4462260;32;20061;-73
2022/07/31 07:45:18;;;;;;;0.62;0.52;;;22.20;99.90;;;;;;4462257;32;20064;-73
2022/07/31 07:47:43;;;;;;;0.60;0.50;;;22.40;99.90;;;;;;4462330;32;20068;-73
2022/07/31 07:50:10;;;;;;;0.95;0.50;;;22.60;99.90;;;;;;4461574;32;20060;-75
2022/07/31 07:52:37;;;;;;;0.73;0.73;;;22.70;99.90;;;;;;4444369;32;20522;-75
2022/07/31 07:55:03;;;;;;;0.50;0.50;;;22.90;99.90;;;;;;4450103;32;20084;-75
2022/07/31 07:57:29;;;;;;;0.40;0.40;;;23.10;99.90;;;;;;4462111;32;20072;-75
2022/07/31 07:59:58;;;;;;;0.43;0.43;;;23.20;99.90;;;;;;4462407;32;20095;-74
2022/07/31 08:02:24;;;;;;;0.40;0.40;;;23.40;99.90;;;;;;4461813;32;20072;-74
2022/07/31 08:04:49;;;;;;;0.43;0.43;;;23.50;99.90;;;;;;4461793;32;20107;-75
2022/07/31 08:07:15;;;;;;;0.43;0.30;;;23.50;99.90;;;;;;4461635;32;20060;-74
2022/07/31 08:09:40;;;;;;;0.30;0.30;;;23.60;99.90;;;;;;4448543;32;20073;-74
2022/07/31 08:12:06;;;;;;;0.50;0.50;;;23.50;99.90;;;;;;4446628;32;20077;-75
2022/07/31 08:14:31;;;;;;;0.70;0.60;;;23.50;99.90;;;;;;4446233;32;20487;-74
2022/07/31 08:16:57;;;;;;;0.30;0.30;;;23.60;99.90;;;;;;4446233;32;20527;-75
2022/07/31 08:19:22;;;;;;;0.30;0.30;;;23.70;99.90;;;;;;4446565;32;20069;-75
2022/07/31 08:21:48;;;;;;;0.43;0.40;;;23.60;99.90;;;;;;4435612;32;20462;-75
2022/07/31 08:24:15;;;;;;;0.40;0.40;;;23.70;99.90;;;;;;4429985;32;20068;-73
2022/07/31 08:27:41;;;;;;;0.50;0.50;;;23.80;99.90;;;;;;4446566;32;20065;-73
2022/07/31 08:29:27;;;;;;;0.40;0.40;;;23.80;99.90;;;;;;4444961;32;20507;-75
2022/07/31 08:31:52;;;;;;;0.43;0.43;;;23.90;99.90;;;;;;4446410;32;20505;-73
2022/07/31 08:34:18;;;;;;;0.35;0.35;;;24.00;99.90;;;;;;4446496;32;20127;-73
2022/07/31 08:36:44;;;;;;;0.30;0.30;;;24.00;99.90;;;;;;4447482;32;20061;-73
2022/07/31 08:39:09;;;;;;;0.32;0.32;;;24.10;99.90;;;;;;4451189;32;20069;-73
2022/07/31 08:41:37;;;;;;;0.40;0.40;;;24.30;99.90;;;;;;4461432;32;20560;-75
2022/07/31 08:44:04;;;;;;;0.77;0.45;;;24.40;99.90;;;;;;4461603;32;20076;-75
2022/07/31 08:46:35;;;;;;;0.30;0.30;;;24.60;99.90;;;;;;4462139;32;20068;-75
2022/07/31 08:49:02;;;;;;;0.37;0.37;;;24.70;99.90;;;;;;4462480;32;20069;-75
2022/07/31 08:51:29;;;;;;;2.92;0.50;;;24.70;99.90;;;;;;4453223;32;20068;-75
2022/07/31 08:53:55;;;;;;;1.80;0.90;;;24.70;99.90;;;;;;4443566;32;20072;-75
2022/07/31 08:56:23;;;;;;;0.20;0.20;;;24.90;99.90;;;;;;4458924;32;20060;-75
2022/07/31 08:58:48;;;;;;;0.68;0.45;;;25.00;99.90;;;;;;4461314;32;20093;-75
2022/07/31 09:01:14;;;;;;;0.20;0.20;;;25.10;99.30;;;;;;4461880;32;20497;-75
2022/07/31 09:03:40;;;;;;;0.50;0.50;;;25.10;99.50;;;;;;4461345;32;20429;-75
2022/07/31 09:06:06;;;;;;;0.40;0.40;;;25.10;99.30;;;;;;4462884;32;20483;-74
2022/07/31 09:08:32;;;;;;;0.60;0.60;;;25.20;99.30;;;;;;4462573;32;20069;-74
2022/07/31 09:11:04;;;;;;;0.20;0.20;;;25.20;99.20;;;;;;4451415;32;20069;-73
2022/07/31 09:13:29;;;;;;;0.80;0.65;;;25.30;99.10;;;;;;4444707;32;20069;-74
2022/07/31 09:15:57;;;;;;;0.77;0.22;;;25.30;99.20;;;;;;4445989;32;20072;-74
2022/07/31 09:18:24;;;;;;;0.30;0.30;;;25.50;99.00;;;;;;4447063;32;20065;-74
2022/07/31 09:20:59;;;;;;;0.40;0.40;;;25.60;98.90;;;;;;4441896;32;20471;-74
2022/07/31 09:23:26;;;;;;;0.50;0.50;;;25.60;98.50;;;;;;4425269;32;20509;-74
2022/07/31 09:25:54;;;;;;;7.45;0.65;;;25.60;98.60;;;;;;4439626;32;20103;-73
2022/07/31 09:28:30;;;;;;;0.28;0.25;;;25.60;98.40;;;;;;4446118;32;20060;-74
2022/07/31 09:30:55;;;;;;;0.40;0.40;;;25.80;98.10;;;;;;4445417;32;20082;-74
2022/07/31 09:33:21;;;;;;;0.30;0.30;;;26.00;97.60;;;;;;4445724;32;20073;-74
2022/07/31 09:35:48;;;;;;;1.02;0.73;;;26.10;97.00;;;;;;4445727;32;20084;-74
2022/07/31 09:38:15;;;;;;;1.25;0.68;;;26.00;97.00;;;;;;4445282;32;20423;-74
2022/07/31 09:40:44;;;;;;;0.30;0.30;;;25.80;96.60;;;;;;4459647;32;20081;-74
2022/07/31 09:43:18;;;;;;;1.12;0.52;;;25.50;97.00;;;;;;4460817;32;20072;-74
2022/07/31 09:45:46;;;;;;;0.20;0.20;;;25.60;96.80;;;;;;4460202;32;20567;-74
2022/07/31 09:48:12;;;;;;;0.88;0.45;;;25.90;96.60;;;;;;4460796;32;20512;-74
2022/07/31 09:50:39;;;;;;;0.15;0.15;;;26.10;95.60;;;;;;4458876;32;20089;-74
2022/07/31 09:53:05;;;;;;;0.20;0.20;;;26.20;95.60;;;;;;4442384;32;20077;-74
2022/07/31 09:55:31;;;;;;;0.32;0.32;;;26.40;95.60;;;;;;4452387;32;20060;-74
2022/07/31 09:57:58;;;;;;;0.98;0.40;;;26.30;95.40;;;;;;4462266;32;20448;-74
2022/07/31 10:00:25;;;;;;;0.50;0.50;;;26.60;95.70;;;;;;4461631;32;20073;-74
2022/07/31 10:02:54;;;;;;;0.45;0.45;;;27.00;95.90;;;;;;4461215;32;20085;-74
2022/07/31 10:05:22;;;;;;;0.30;0.30;;;27.00;94.90;;;;;;4460679;32;20075;-74
2022/07/31 10:07:49;;;;;;;0.20;0.20;;;26.70;94.80;;;;;;4460928;32;20072;-74
2022/07/31 10:10:15;;;;;;;0.30;0.30;;;26.80;95.30;;;;;;4460459;32;20074;-74
2022/07/31 10:12:46;;;;;;;0.50;0.50;;;26.90;94.60;;;;;;4462830;32;20061;-74
2022/07/31 10:15:15;;;;;;;0.13;0.13;;;26.60;94.90;;;;;;4460748;32;20085;-74
2022/07/31 10:17:45;;;;;;;0.20;0.20;;;26.20;94.90;;;;;;4460652;32;20072;-74
2022/07/31 10:20:16;;;;;;;0.50;0.50;;;26.00;95.00;;;;;;4460330;32;20076;-74
2022/07/31 10:22:44;;;;;;;0.28;0.28;;;26.30;95.10;;;;;;4443008;32;20545;-74
2022/07/31 10:25:15;;;;;;;0.28;0.20;;;26.80;93.90;;;;;;4453622;32;20115;-74
2022/07/31 10:27:43;;;;;;;0.35;0.30;;;27.30;93.10;;;;;;4464323;32;20410;-74
2022/07/31 10:30:09;;;;;;;0.30;0.22;;;27.70;92.60;;;;;;4462586;32;20504;-74
2022/07/31 10:32:35;;;;;;;0.62;0.62;;;27.80;92.50;;;;;;4461927;32;20131;-74
2022/07/31 10:35:03;;;;;;;0.30;0.30;;;27.80;91.50;;;;;;4462560;32;20508;-74
2022/07/31 10:37:39;;;;;;;0.47;0.47;;;27.80;91.80;;;;;;4462518;32;20065;-74
2022/07/31 10:40:16;;;;;;;0.45;0.28;;;28.10;92.10;;;;;;4462667;32;20069;-74
2022/07/31 10:42:54;;;;;;;0.30;0.30;;;27.80;92.10;;;;;;4447300;32;20082;-74
2022/07/31 10:45:19;;;;;;;0.30;0.30;;;27.50;92.50;;;;;;4450907;32;20080;-74
2022/07/31 10:48:02;;;;;;;0.25;0.25;;;27.60;92.60;;;;;;4462416;32;20064;-74
2022/07/31 10:50:29;;;;;;;0.22;0.22;;;28.00;92.50;;;;;;4459750;32;20140;-74
2022/07/31 10:53:05;;;;;;;0.20;0.20;;;28.10;91.80;;;;;;4443795;32;20482;-74
2022/07/31 10:55:31;;;;;;;0.40;0.40;;;27.60;92.00;;;;;;4452594;32;20068;-74
2022/07/31 10:58:08;;;;;;;0.22;0.22;;;27.30;92.60;;;;;;4462741;32;20071;-74
2022/07/31 11:00:34;;;;;;;0.65;0.65;;;27.20;92.50;;;;;;4463823;32;20077;-74
2022/07/31 11:03:10;;;;;;;0.62;0.52;;;27.10;93.10;;;;;;4462438;32;20084;-74
2022/07/31 11:05:35;;;;;;;0.43;0.25;;;27.30;93.30;;;;;;4461361;32;20165;-74
2022/07/31 11:08:03;;;;;;;0.20;0.20;;;27.80;92.50;;;;;;4463909;32;20080;-74
2022/07/31 11:10:29;;;;;;;0.40;0.40;;;27.60;92.60;;;;;;4456155;32;20537;-74
2022/07/31 11:13:04;;;;;;;0.25;0.25;;;27.30;92.90;;;;;;4446787;32;20074;-74
2022/07/31 11:15:30;;;;;;;0.30;0.30;;;27.10;93.20;;;;;;4447194;32;20076;-74
2022/07/31 11:17:56;;;;;;;0.98;0.28;;;27.10;93.00;;;;;;4446862;32;20115;-74
2022/07/31 11:20:26;;;;;;;0.20;0.20;;;27.00;92.80;;;;;;4445583;32;20072;-74
2022/07/31 11:23:04;;;;;;;0.25;0.25;;;26.90;93.20;;;;;;4427273;32;20396;-74
2022/07/31 11:25:33;;;;;;;0.40;0.40;;;26.90;93.30;;;;;;4437511;32;20123;-73
2022/07/31 11:28:20;;;;;;;0.40;0.40;;;26.80;93.50;;;;;;4446678;32;20061;-73
2022/07/31 11:30:49;;;;;;;0.25;0.25;;;27.20;93.30;;;;;;4446573;32;20069;-74
2022/07/31 11:33:26;;;;;;;0.10;0.10;;;27.50;92.70;;;;;;4445964;32;20065;-74
2022/07/31 11:35:51;;;;;;;0.20;0.20;;;27.90;92.10;;;;;;4445581;32;20093;-74
2022/07/31 11:38:17;;;;;;;0.40;0.40;;;28.70;91.20;;;;;;4446093;32;20062;-74
2022/07/31 11:40:48;;;;;;;0.20;0.20;;;28.60;90.80;;;;;;4449351;32;20520;-74
2022/07/31 11:43:14;;;;;;;0.20;0.20;;;28.30;90.80;;;;;;4461583;32;20088;-74
2022/07/31 11:45:48;;;;;;;2.55;0.93;;;28.30;90.60;;;;;;4462156;32;20057;-74
2022/07/31 11:48:15;;;;;;;0.17;0.17;;;28.10;90.40;;;;;;4448502;32;20143;-74
2022/07/31 11:50:42;;;;;;;0.30;0.30;;;27.80;90.80;;;;;;4443633;32;20057;-74
2022/07/31 11:53:08;;;;;;;0.32;0.30;;;27.70;91.00;;;;;;4425780;32;20576;-74
2022/07/31 11:55:51;;;;;;;0.30;0.30;;;27.60;91.00;;;;;;4437424;32;20053;-73
2022/07/31 11:58:19;;;;;;;0.30;0.30;;;27.20;91.60;;;;;;4445931;32;20061;-73
2022/07/31 12:00:54;;;;;;;13.45;0.35;;;27.00;91.60;;;;;;4446617;32;20085;-73
2022/07/31 12:03:24;;;;;;;0.45;0.37;;;26.80;92.10;;;;;;4445623;32;20120;-74
2022/07/31 12:05:51;;;;;;;0.40;0.40;;;26.70;92.10;;;;;;4445651;32;20065;-74
2022/07/31 12:08:17;;;;;;;0.30;0.30;;;26.60;92.20;;;;;;4446164;32;20118;-74
2022/07/31 12:10:44;;;;;;;0.30;0.30;;;26.60;92.50;;;;;;4446414;32;20538;-74
2022/07/31 12:13:12;;;;;;;0.30;0.30;;;26.60;92.00;;;;;;4446264;32;20065;-74
2022/07/31 12:15:38;;;;;;;0.10;0.10;;;26.60;92.00;;;;;;4446528;32;20127;-74
2022/07/31 12:18:04;;;;;;;0.40;0.28;;;26.40;92.30;;;;;;4445424;32;20081;-73
2022/07/31 12:20:31;;;;;;;0.30;0.30;;;26.20;92.20;;;;;;4444301;32;20521;-73
2022/07/31 12:22:58;;;;;;;1.12;0.25;;;26.20;92.30;;;;;;4426704;32;20082;-73
2022/07/31 12:25:24;;;;;;;0.30;0.30;;;26.10;92.30;;;;;;4436117;32;20065;-73
2022/07/31 12:27:53;;;;;;;0.37;0.37;;;26.10;92.60;;;;;;4446360;32;20077;-73
2022/07/31 12:30:23;;;;;;;0.28;0.28;;;26.10;92.90;;;;;;4446709;32;20474;-73
2022/07/31 12:32:49;;;;;;;0.50;0.50;;;26.00;93.00;;;;;;4446246;32;20406;-73
2022/07/31 12:35:14;;;;;;;1.15;0.77;;;26.00;93.20;;;;;;4445066;32;20080;-73
2022/07/31 12:37:48;;;;;;;0.20;0.20;;;26.10;93.20;;;;;;4445685;32;20065;-73
2022/07/31 12:40:23;;;;;;;0.20;0.20;;;26.20;92.90;;;;;;4445507;32;20533;-73
2022/07/31 12:42:48;;;;;;;0.28;0.28;;;26.40;92.90;;;;;;4445296;32;20073;-74
2022/07/31 12:45:14;;;;;;;0.13;0.13;;;27.10;92.10;;;;;;4445616;32;20065;-74
2022/07/31 12:47:39;;;;;;;0.10;0.10;;;27.40;92.00;;;;;;4445469;32;20072;-74